Time;durP1;ratioP1;P1;durP2;ratioP2;P2;SDS_P1;SDS_P2;PMS_P1;PMS_P2;Temp;Humidity;BMP_temperature;BMP_pressure;BME280_temperature;BME280_humidity;BME280_pressure;Samples;Min_cycle;Max_cycle;Signal;HPM_P1;HPM_P2
2024/01/23 00:01:33;;;;;;;17.45;16.65;;;;;;;;;;5058125;28;20212;-81
2024/01/23 00:04:01;;;;;;;17.52;16.63;;;;;;;;;;5058146;28;20208;-82
2024/01/23 00:06:29;;;;;;;19.33;17.90;;;;;;;;;;5057265;28;20215;-83
2024/01/23 00:08:57;;;;;;;18.92;17.52;;;;;;;;;;5058777;28;20466;-83
2024/01/23 00:11:24;;;;;;;19.47;18.27;;;;;;;;;;5057468;28;20204;-81
2024/01/23 00:13:51;;;;;;;19.48;17.92;;;;;;;;;;5057683;28;20451;-82
2024/01/23 00:16:19;;;;;;;19.73;18.40;;;;;;;;;;5058077;28;20223;-82
2024/01/23 00:18:46;;;;;;;18.30;17.23;;;;;;;;;;5059271;28;20459;-82
2024/01/23 00:21:14;;;;;;;20.23;18.50;;;;;;;;;;5059053;28;20485;-83
2024/01/23 00:23:41;;;;;;;20.50;18.90;;;;;;;;;;5057850;28;20456;-82
2024/01/23 00:26:08;;;;;;;21.38;19.42;;;;;;;;;;5057446;28;20636;-84
2024/01/23 00:28:35;;;;;;;19.92;18.63;;;;;;;;;;5057842;28;20661;-83
2024/01/23 00:31:02;;;;;;;22.73;21.10;;;;;;;;;;5058189;28;20208;-84
2024/01/23 00:33:29;;;;;;;20.50;19.10;;;;;;;;;;5057864;28;20450;-83
2024/01/23 00:35:56;;;;;;;19.93;18.83;;;;;;;;;;5058573;28;20200;-83
2024/01/23 00:38:25;;;;;;;21.33;19.77;;;;;;;;;;5058452;28;20487;-85
2024/01/23 00:40:52;;;;;;;21.17;19.50;;;;;;;;;;5054630;28;20208;-83
2024/01/23 00:43:19;;;;;;;22.47;20.30;;;;;;;;;;5052938;28;20214;-83
2024/01/23 00:45:46;;;;;;;21.23;20.00;;;;;;;;;;5054701;28;20500;-83
2024/01/23 00:48:13;;;;;;;24.48;22.13;;;;;;;;;;5055687;28;20843;-82
2024/01/23 00:50:40;;;;;;;22.63;20.60;;;;;;;;;;5056012;28;20228;-84
2024/01/23 00:53:07;;;;;;;21.88;20.42;;;;;;;;;;5056374;28;20926;-84
2024/01/23 00:55:35;;;;;;;30.52;22.33;;;;;;;;;;5057115;28;20266;-84
2024/01/23 00:58:02;;;;;;;22.75;20.77;;;;;;;;;;5055985;28;20223;-82
2024/01/23 01:00:29;;;;;;;24.17;22.35;;;;;;;;;;5055913;28;20783;-84
2024/01/23 01:02:56;;;;;;;22.10;20.50;;;;;;;;;;5056509;28;20215;-83
2024/01/23 01:05:23;;;;;;;22.27;20.55;;;;;;;;;;5061313;28;20208;-82
2024/01/23 01:07:50;;;;;;;22.27;20.67;;;;;;;;;;5056563;28;20282;-83
2024/01/23 01:10:18;;;;;;;25.58;22.05;;;;;;;;;;5067349;28;20466;-84
2024/01/23 01:12:46;;;;;;;22.70;20.75;;;;;;;;;;5076304;28;20658;-83
2024/01/23 01:15:13;;;;;;;35.83;23.98;;;;;;;;;;5077007;28;20211;-83
2024/01/23 01:17:40;;;;;;;24.20;21.90;;;;;;;;;;5073818;28;20638;-83
2024/01/23 01:20:08;;;;;;;21.50;20.13;;;;;;;;;;5062841;28;20490;-82
2024/01/23 01:22:35;;;;;;;23.88;21.58;;;;;;;;;;5056773;28;20227;-84
2024/01/23 01:25:02;;;;;;;36.63;23.33;;;;;;;;;;5055877;28;20261;-84
2024/01/23 01:27:29;;;;;;;22.38;20.27;;;;;;;;;;5056059;28;20424;-84
2024/01/23 01:29:58;;;;;;;21.37;19.70;;;;;;;;;;5056619;28;20234;-83
2024/01/23 01:32:25;;;;;;;23.30;21.10;;;;;;;;;;5056073;28;20443;-81
2024/01/23 01:34:52;;;;;;;22.07;20.13;;;;;;;;;;5055749;28;21000;-83
2024/01/23 01:37:19;;;;;;;20.27;18.80;;;;;;;;;;5075909;28;20515;-83
2024/01/23 01:39:46;;;;;;;21.90;19.73;;;;;;;;;;5075699;28;20454;-82
2024/01/23 01:42:13;;;;;;;20.07;18.60;;;;;;;;;;5075945;28;20545;-82
2024/01/23 01:44:40;;;;;;;21.88;19.83;;;;;;;;;;5076427;28;20450;-82
2024/01/23 01:47:09;;;;;;;20.50;19.20;;;;;;;;;;5075911;28;20257;-84
2024/01/23 01:49:36;;;;;;;21.75;20.02;;;;;;;;;;5075704;28;20288;-82
2024/01/23 01:52:04;;;;;;;21.52;18.70;;;;;;;;;;5071719;28;20598;-83
2024/01/23 01:54:31;;;;;;;17.70;16.65;;;;;;;;;;5055963;28;20197;-81
2024/01/23 01:57:00;;;;;;;19.00;17.30;;;;;;;;;;5055051;28;20208;-84
2024/01/23 01:59:27;;;;;;;18.92;17.63;;;;;;;;;;5055446;28;20231;-82
2024/01/23 02:01:54;;;;;;;22.75;21.25;;;;;;;;;;5055710;28;20212;-82
2024/01/23 02:04:22;;;;;;;21.30;19.95;;;;;;;;;;5055282;28;20212;-82
2024/01/23 02:06:49;;;;;;;21.60;20.05;;;;;;;;;;5054837;28;20673;-82
2024/01/23 02:09:17;;;;;;;22.95;21.15;;;;;;;;;;5062119;28;20288;-82
2024/01/23 02:11:56;;;;;;;23.10;21.60;;;;;;;;;;5075724;28;20210;-81
2024/01/23 02:14:23;;;;;;;20.90;19.70;;;;;;;;;;5080536;28;20448;-81
2024/01/23 02:16:50;;;;;;;20.33;18.85;;;;;;;;;;5072239;28;20215;-83
2024/01/23 02:19:17;;;;;;;19.27;18.25;;;;;;;;;;5072882;28;20231;-81
2024/01/23 02:21:45;;;;;;;19.17;18.15;;;;;;;;;;5076015;28;20207;-83
2024/01/23 02:24:14;;;;;;;19.00;17.77;;;;;;;;;;5076155;28;20211;-82
2024/01/23 02:26:41;;;;;;;20.20;18.90;;;;;;;;;;5076299;28;20200;-81
2024/01/23 02:29:08;;;;;;;18.73;17.83;;;;;;;;;;5077258;28;20649;-83
2024/01/23 02:31:35;;;;;;;19.85;18.55;;;;;;;;;;5077521;28;20260;-82
2024/01/23 02:34:02;;;;;;;19.75;18.50;;;;;;;;;;5078741;28;20199;-83
2024/01/23 02:36:29;;;;;;;20.77;19.35;;;;;;;;;;5063352;28;20688;-81
2024/01/23 02:38:56;;;;;;;19.38;18.25;;;;;;;;;;5058158;28;20285;-83
2024/01/23 02:47:32;;;;;;;19.13;17.92;;;;;;;;;;5067679;28;20203;-83
2024/01/23 02:49:59;;;;;;;20.70;19.25;;;;;;;;;;5078330;28;20299;-82
2024/01/23 02:52:31;;;;;;;20.95;19.23;;;;;;;;;;5078351;28;20212;-81
2024/01/23 02:54:58;;;;;;;20.42;19.10;;;;;;;;;;5069880;28;20236;-82
2024/01/23 02:57:25;;;;;;;22.08;20.10;;;;;;;;;;5073043;28;20227;-84
2024/01/23 02:59:52;;;;;;;21.98;20.15;;;;;;;;;;5078272;28;20227;-84
2024/01/23 03:02:19;;;;;;;21.05;19.33;;;;;;;;;;5074085;28;20629;-81
2024/01/23 03:04:47;;;;;;;21.35;19.95;;;;;;;;;;5078455;28;20207;-84
2024/01/23 03:07:14;;;;;;;21.98;20.02;;;;;;;;;;5077397;28;20223;-82
2024/01/23 03:09:41;;;;;;;22.90;20.75;;;;;;;;;;5078251;28;20223;-84
2024/01/23 03:12:15;;;;;;;23.33;21.10;;;;;;;;;;5077646;28;20203;-82
2024/01/23 03:14:43;;;;;;;21.42;19.98;;;;;;;;;;5078927;28;20282;-83
2024/01/23 03:17:10;;;;;;;24.65;22.17;;;;;;;;;;5077592;28;20215;-82
2024/01/23 03:19:37;;;;;;;22.25;20.92;;;;;;;;;;5077246;28;20245;-81
2024/01/23 03:22:05;;;;;;;22.23;20.27;;;;;;;;;;5073933;28;20215;-83
2024/01/23 03:24:32;;;;;;;27.27;22.48;;;;;;;;;;5057232;28;20204;-82
2024/01/23 03:27:00;;;;;;;21.02;19.35;;;;;;;;;;5057164;28;20208;-83
2024/01/23 03:29:27;;;;;;;25.45;20.83;;;;;;;;;;5067570;28;20227;-83
2024/01/23 03:31:54;;;;;;;22.17;20.38;;;;;;;;;;5076173;28;20752;-84
2024/01/23 03:34:21;;;;;;;31.05;21.95;;;;;;;;;;5077881;28;20317;-82
2024/01/23 03:36:48;;;;;;;24.38;22.45;;;;;;;;;;5060827;28;20212;-82
2024/01/23 03:39:17;;;;;;;23.85;22.20;;;;;;;;;;5057767;28;20270;-83
2024/01/23 03:41:44;;;;;;;24.15;21.67;;;;;;;;;;5077892;28;20215;-82
2024/01/23 03:44:11;;;;;;;23.83;21.80;;;;;;;;;;5077687;28;20211;-82
2024/01/23 03:46:38;;;;;;;23.88;21.33;;;;;;;;;;5076464;28;20203;-84
2024/01/23 03:49:05;;;;;;;26.00;21.95;;;;;;;;;;5077868;28;20250;-84
2024/01/23 03:51:32;;;;;;;22.65;20.70;;;;;;;;;;5076950;28;20717;-84
2024/01/23 03:53:59;;;;;;;26.65;24.13;;;;;;;;;;5071985;28;20267;-82
2024/01/23 03:56:27;;;;;;;27.92;21.38;;;;;;;;;;5056566;28;20207;-82
2024/01/23 03:58:55;;;;;;;22.30;20.30;;;;;;;;;;5057122;28;20232;-84
2024/01/23 04:01:22;;;;;;;29.88;23.08;;;;;;;;;;5057177;28;20207;-83
2024/01/23 04:03:49;;;;;;;27.23;22.17;;;;;;;;;;5064407;28;20270;-82
2024/01/23 04:06:16;;;;;;;22.33;20.80;;;;;;;;;;5073880;28;20219;-85
2024/01/23 04:08:43;;;;;;;23.42;21.15;;;;;;;;;;5077201;28;20753;-83
2024/01/23 04:11:09;;;;;;;23.57;21.27;;;;;;;;;;5077498;28;20556;-83
2024/01/23 04:13:38;;;;;;;22.83;20.90;;;;;;;;;;5076899;28;20483;-82
2024/01/23 04:16:06;;;;;;;22.90;20.02;;;;;;;;;;5076781;28;20211;-83
2024/01/23 04:18:33;;;;;;;20.77;19.27;;;;;;;;;;5076841;28;20906;-82
2024/01/23 04:21:01;;;;;;;26.00;19.85;;;;;;;;;;5077100;28;20207;-84
2024/01/23 04:23:28;;;;;;;21.85;19.52;;;;;;;;;;5077355;28;20620;-82
2024/01/23 04:25:55;;;;;;;21.48;19.75;;;;;;;;;;5076202;28;20196;-85
2024/01/23 04:28:22;;;;;;;18.13;17.13;;;;;;;;;;5076359;28;20195;-82
2024/01/23 04:30:52;;;;;;;18.90;17.38;;;;;;;;;;5076297;28;20215;-83
2024/01/23 04:33:19;;;;;;;20.08;17.98;;;;;;;;;;5077044;28;20200;-84
2024/01/23 04:35:46;;;;;;;26.67;18.88;;;;;;;;;;5076441;28;20211;-82
2024/01/23 04:38:14;;;;;;;18.30;16.70;;;;;;;;;;5062947;28;20232;-84
2024/01/23 04:40:41;;;;;;;18.95;17.75;;;;;;;;;;5056434;28;20224;-84
2024/01/23 04:43:08;;;;;;;16.42;15.52;;;;;;;;;;5056367;28;20208;-84
2024/01/23 04:45:35;;;;;;;26.77;17.05;;;;;;;;;;5056713;28;20211;-83
2024/01/23 04:48:03;;;;;;;26.02;21.75;;;;;;;;;;5056396;28;20257;-84
2024/01/23 04:50:30;;;;;;;29.17;21.65;;;;;;;;;;5061841;28;20231;-83
2024/01/23 04:52:57;;;;;;;27.80;24.58;;;;;;;;;;5076391;28;20207;-82
2024/01/23 04:55:24;;;;;;;101.30;45.63;;;;;;;;;;5064706;28;20233;-82
2024/01/23 04:57:51;;;;;;;30.87;25.37;;;;;;;;;;5056023;28;20196;-83
2024/01/23 05:00:19;;;;;;;52.55;28.25;;;;;;;;;;5055971;28;20471;-81
2024/01/23 05:02:46;;;;;;;40.78;26.63;;;;;;;;;;5056224;28;20212;-83
2024/01/23 05:05:14;;;;;;;21.45;19.17;;;;;;;;;;5056021;28;20270;-82
2024/01/23 05:07:41;;;;;;;21.50;19.33;;;;;;;;;;5055284;28;20201;-83
2024/01/23 05:10:08;;;;;;;28.88;25.88;;;;;;;;;;5056191;28;20273;-82
2024/01/23 05:12:36;;;;;;;50.00;27.80;;;;;;;;;;5056062;28;20204;-81
2024/01/23 05:15:04;;;;;;;32.83;27.13;;;;;;;;;;5055619;28;20638;-81
2024/01/23 05:17:31;;;;;;;42.65;34.47;;;;;;;;;;5054696;28;20230;-82
2024/01/23 05:19:58;;;;;;;32.50;27.48;;;;;;;;;;5056730;28;20254;-82
2024/01/23 05:22:27;;;;;;;47.40;31.75;;;;;;;;;;5063857;28;20222;-83
2024/01/23 05:24:54;;;;;;;23.60;21.95;;;;;;;;;;5065519;28;20265;-82
2024/01/23 05:27:21;;;;;;;26.42;24.27;;;;;;;;;;5075099;28;20721;-81
2024/01/23 05:29:48;;;;;;;24.35;22.30;;;;;;;;;;5075611;28;20219;-82
2024/01/23 05:32:15;;;;;;;27.08;24.02;;;;;;;;;;5072870;28;20223;-81
2024/01/23 05:34:42;;;;;;;26.38;23.55;;;;;;;;;;5063703;28;20574;-81
2024/01/23 05:37:09;;;;;;;25.50;23.13;;;;;;;;;;5071201;28;20653;-80
2024/01/23 05:39:38;;;;;;;25.05;23.05;;;;;;;;;;5063107;28;20243;-81
2024/01/23 05:42:06;;;;;;;25.88;23.98;;;;;;;;;;5055245;28;20254;-81
2024/01/23 05:44:33;;;;;;;28.17;25.55;;;;;;;;;;5054580;28;20200;-82
2024/01/23 05:47:00;;;;;;;27.35;25.60;;;;;;;;;;5060390;28;20238;-82
2024/01/23 05:49:27;;;;;;;30.33;27.10;;;;;;;;;;5074301;28;20301;-81
2024/01/23 05:51:54;;;;;;;27.90;26.25;;;;;;;;;;5075331;28;20204;-81
2024/01/23 05:54:21;;;;;;;30.35;27.95;;;;;;;;;;5078691;28;20257;-82
2024/01/23 05:56:49;;;;;;;27.70;25.57;;;;;;;;;;5081747;28;20203;-81
2024/01/23 05:59:16;;;;;;;28.77;26.48;;;;;;;;;;5076614;28;20973;-81
2024/01/23 06:01:43;;;;;;;29.95;27.92;;;;;;;;;;5078361;28;20214;-80
2024/01/23 06:04:10;;;;;;;27.75;25.15;;;;;;;;;;5078516;28;20203;-81
2024/01/23 06:06:40;;;;;;;27.80;25.67;;;;;;;;;;5077803;28;20200;-81
2024/01/23 06:09:09;;;;;;;28.60;26.17;;;;;;;;;;5078501;28;20227;-81
2024/01/23 06:11:36;;;;;;;30.23;27.73;;;;;;;;;;5078183;28;20195;-80
2024/01/23 06:14:05;;;;;;;31.42;28.40;;;;;;;;;;5078360;28;20934;-81
2024/01/23 06:16:32;;;;;;;30.25;28.00;;;;;;;;;;5078295;28;20560;-80
2024/01/23 06:18:59;;;;;;;29.17;26.92;;;;;;;;;;5078172;28;20627;-82
2024/01/23 06:21:26;;;;;;;29.50;27.17;;;;;;;;;;5078149;28;20207;-80
2024/01/23 06:23:53;;;;;;;28.80;26.98;;;;;;;;;;5078024;28;20211;-82
2024/01/23 06:26:20;;;;;;;30.23;28.03;;;;;;;;;;5077576;28;20664;-80
2024/01/23 06:28:47;;;;;;;32.70;30.00;;;;;;;;;;5078040;28;20482;-80
2024/01/23 06:31:16;;;;;;;29.80;27.40;;;;;;;;;;5072692;28;20257;-81
2024/01/23 06:33:43;;;;;;;31.23;29.27;;;;;;;;;;5078452;28;20199;-81
2024/01/23 06:36:10;;;;;;;30.90;28.45;;;;;;;;;;5077366;28;20261;-80
2024/01/23 06:38:37;;;;;;;30.00;27.98;;;;;;;;;;5077181;28;20227;-79
2024/01/23 06:41:04;;;;;;;28.80;27.00;;;;;;;;;;5077063;28;20220;-79
2024/01/23 06:43:31;;;;;;;30.90;27.90;;;;;;;;;;5077419;28;20484;-79
2024/01/23 06:45:58;;;;;;;29.75;26.98;;;;;;;;;;5077274;28;20744;-83
2024/01/23 06:48:27;;;;;;;29.80;27.13;;;;;;;;;;5067460;28;20237;-80
2024/01/23 06:50:54;;;;;;;29.60;27.13;;;;;;;;;;5056857;28;20521;-80
2024/01/23 06:53:20;;;;;;;29.17;27.10;;;;;;;;;;5057388;28;20204;-79
2024/01/23 06:55:47;;;;;;;28.13;26.13;;;;;;;;;;5057338;28;20234;-79
2024/01/23 06:58:14;;;;;;;28.83;26.77;;;;;;;;;;5057024;28;20450;-78
2024/01/23 07:00:41;;;;;;;28.30;26.25;;;;;;;;;;5068856;28;20265;-79
2024/01/23 07:03:09;;;;;;;27.35;25.58;;;;;;;;;;5077623;28;20211;-78
2024/01/23 07:05:37;;;;;;;29.63;27.13;;;;;;;;;;5076905;28;20210;-79
2024/01/23 07:08:04;;;;;;;26.83;25.00;;;;;;;;;;5076722;28;20203;-80
2024/01/23 07:10:31;;;;;;;27.23;25.33;;;;;;;;;;5076464;28;20280;-78
2024/01/23 07:12:58;;;;;;;26.08;24.15;;;;;;;;;;5077152;28;20219;-79
2024/01/23 07:15:25;;;;;;;27.30;25.02;;;;;;;;;;5065451;28;20208;-79
2024/01/23 07:17:53;;;;;;;31.65;25.13;;;;;;;;;;5059769;28;20211;-80
2024/01/23 07:20:20;;;;;;;26.27;23.98;;;;;;;;;;5074210;28;20238;-80
2024/01/23 07:22:48;;;;;;;25.80;24.10;;;;;;;;;;5070093;28;20262;-79
2024/01/23 07:25:15;;;;;;;26.80;24.30;;;;;;;;;;5072901;28;20211;-79
2024/01/23 07:27:42;;;;;;;24.75;23.30;;;;;;;;;;5073866;28;21006;-80
2024/01/23 07:30:09;;;;;;;24.17;22.17;;;;;;;;;;5074137;28;20292;-79
2024/01/23 07:32:36;;;;;;;25.30;22.90;;;;;;;;;;5073921;28;20211;-79
2024/01/23 07:35:04;;;;;;;25.88;21.67;;;;;;;;;;5073559;28;20579;-77
2024/01/23 07:37:31;;;;;;;23.77;22.03;;;;;;;;;;5073425;28;20207;-78
2024/01/23 07:39:59;;;;;;;23.88;22.15;;;;;;;;;;5073619;28;20475;-79
2024/01/23 07:42:26;;;;;;;23.33;22.00;;;;;;;;;;5073741;28;20211;-78
2024/01/23 07:44:53;;;;;;;24.48;22.38;;;;;;;;;;5074160;28;20618;-79
2024/01/23 07:47:20;;;;;;;23.02;20.85;;;;;;;;;;5073306;28;20203;-79
2024/01/23 07:49:47;;;;;;;24.45;21.92;;;;;;;;;;5074075;28;20704;-78
2024/01/23 07:52:15;;;;;;;22.63;20.63;;;;;;;;;;5073484;28;20730;-79
2024/01/23 07:54:42;;;;;;;25.67;22.93;;;;;;;;;;5074302;28;20441;-78
2024/01/23 07:57:10;;;;;;;21.87;20.27;;;;;;;;;;5073967;28;20425;-78
2024/01/23 07:59:39;;;;;;;23.88;21.88;;;;;;;;;;5074922;28;20497;-80
2024/01/23 08:02:06;;;;;;;22.60;20.77;;;;;;;;;;5074786;28;20210;-78
2024/01/23 08:04:33;;;;;;;22.87;21.07;;;;;;;;;;5073880;28;20467;-78
2024/01/23 08:07:00;;;;;;;22.23;20.23;;;;;;;;;;5073251;28;20492;-78
2024/01/23 08:09:27;;;;;;;24.63;22.48;;;;;;;;;;5074898;28;21041;-79
2024/01/23 08:11:54;;;;;;;21.43;19.87;;;;;;;;;;5069940;28;20873;-77
2024/01/23 08:14:23;;;;;;;21.83;19.80;;;;;;;;;;5053120;28;20451;-78
2024/01/23 08:16:50;;;;;;;22.97;20.93;;;;;;;;;;5052375;28;20552;-79
2024/01/23 08:19:17;;;;;;;22.47;20.30;;;;;;;;;;5052789;28;20532;-80
2024/01/23 08:21:44;;;;;;;21.27;19.17;;;;;;;;;;5053304;28;20454;-78
2024/01/23 08:24:11;;;;;;;20.37;19.13;;;;;;;;;;5053736;28;20212;-78
2024/01/23 08:26:38;;;;;;;22.30;20.30;;;;;;;;;;5056222;28;20429;-78
2024/01/23 08:29:04;;;;;;;22.47;20.27;;;;;;;;;;5073280;28;20232;-79
2024/01/23 08:31:33;;;;;;;21.38;19.83;;;;;;;;;;5065105;28;20447;-78
2024/01/23 08:34:00;;;;;;;22.42;20.38;;;;;;;;;;5053108;28;20230;-79
2024/01/23 08:36:27;;;;;;;20.50;18.67;;;;;;;;;;5052346;28;20208;-79
2024/01/23 08:38:54;;;;;;;20.77;18.67;;;;;;;;;;5052698;28;20479;-78
2024/01/23 08:41:21;;;;;;;20.03;18.63;;;;;;;;;;5053995;28;20208;-80
2024/01/23 08:43:48;;;;;;;19.60;18.20;;;;;;;;;;5057242;28;20443;-84
2024/01/23 08:46:15;;;;;;;25.05;20.23;;;;;;;;;;5056015;28;20212;-83
2024/01/23 08:48:43;;;;;;;22.37;19.33;;;;;;;;;;5054663;28;20618;-81
2024/01/23 08:51:10;;;;;;;19.93;18.20;;;;;;;;;;5055306;28;20438;-81
2024/01/23 08:53:37;;;;;;;19.30;18.20;;;;;;;;;;5055716;28;20430;-80
2024/01/23 08:56:05;;;;;;;20.38;17.88;;;;;;;;;;5054638;28;20208;-82
2024/01/23 08:58:32;;;;;;;40.55;19.27;;;;;;;;;;5054976;28;20722;-80
2024/01/23 09:00:59;;;;;;;20.17;18.70;;;;;;;;;;5055454;28;20227;-80
2024/01/23 09:03:26;;;;;;;21.23;19.50;;;;;;;;;;5055411;28;20207;-80
2024/01/23 09:05:54;;;;;;;20.48;18.35;;;;;;;;;;5055606;28;20528;-81
2024/01/23 09:08:21;;;;;;;23.93;21.33;;;;;;;;;;5054468;28;20204;-81
2024/01/23 09:10:49;;;;;;;24.30;19.80;;;;;;;;;;5055422;28;20461;-84
2024/01/23 09:13:17;;;;;;;20.53;18.70;;;;;;;;;;5055159;28;20435;-81
2024/01/23 09:15:44;;;;;;;19.90;18.75;;;;;;;;;;5054386;28;20942;-80
2024/01/23 09:18:11;;;;;;;24.23;21.57;;;;;;;;;;5054057;28;20250;-80
2024/01/23 09:20:38;;;;;;;19.63;18.37;;;;;;;;;;5054704;28;20483;-80
2024/01/23 09:23:07;;;;;;;20.97;18.93;;;;;;;;;;5054460;28;20463;-80
2024/01/23 09:25:34;;;;;;;18.23;17.07;;;;;;;;;;5053848;28;20536;-81
2024/01/23 09:28:01;;;;;;;22.25;20.05;;;;;;;;;;5051310;28;20444;-80
2024/01/23 09:30:29;;;;;;;19.60;17.90;;;;;;;;;;5054115;28;21047;-80
2024/01/23 09:32:57;;;;;;;20.98;18.98;;;;;;;;;;5055874;28;20206;-81
2024/01/23 09:35:24;;;;;;;20.57;19.07;;;;;;;;;;5057662;28;20212;-80
2024/01/23 09:37:51;;;;;;;20.73;18.00;;;;;;;;;;5055657;28;20508;-79
2024/01/23 09:40:20;;;;;;;20.33;18.58;;;;;;;;;;5056980;28;20489;-80
2024/01/23 09:42:48;;;;;;;20.40;18.33;;;;;;;;;;5057244;28;20204;-79
2024/01/23 09:45:17;;;;;;;20.27;18.30;;;;;;;;;;5056923;28;20421;-78
2024/01/23 09:47:44;;;;;;;20.02;18.20;;;;;;;;;;5055983;28;20204;-78
2024/01/23 09:50:11;;;;;;;30.87;19.40;;;;;;;;;;5056524;28;20224;-78
2024/01/23 09:52:39;;;;;;;21.20;18.13;;;;;;;;;;5057052;28;20450;-84
2024/01/23 09:55:06;;;;;;;19.42;17.80;;;;;;;;;;5056378;28;20478;-79
2024/01/23 09:57:35;;;;;;;17.30;16.40;;;;;;;;;;5056162;28;20278;-79
2024/01/23 10:00:03;;;;;;;20.67;18.67;;;;;;;;;;5063167;28;20270;-78
2024/01/23 10:02:30;;;;;;;20.90;18.98;;;;;;;;;;5065106;28;20474;-77
2024/01/23 10:04:58;;;;;;;22.03;19.40;;;;;;;;;;5065057;28;20625;-79
2024/01/23 10:07:25;;;;;;;20.55;18.83;;;;;;;;;;5067999;28;20436;-77
2024/01/23 10:09:52;;;;;;;21.63;18.98;;;;;;;;;;5059502;28;20224;-77
2024/01/23 10:12:19;;;;;;;37.58;20.45;;;;;;;;;;5073004;28;20211;-78
2024/01/23 10:14:47;;;;;;;18.47;17.20;;;;;;;;;;5058554;28;20216;-78
2024/01/23 10:17:14;;;;;;;19.70;18.10;;;;;;;;;;5058880;28;20466;-77
2024/01/23 10:19:41;;;;;;;18.63;17.47;;;;;;;;;;5055454;28;20503;-77
2024/01/23 10:22:09;;;;;;;19.20;17.87;;;;;;;;;;5059958;28;20816;-77
2024/01/23 10:24:36;;;;;;;20.27;18.70;;;;;;;;;;5054163;28;20482;-78
2024/01/23 10:27:03;;;;;;;21.98;20.02;;;;;;;;;;5068793;28;20469;-79
2024/01/23 10:29:30;;;;;;;21.03;18.90;;;;;;;;;;5053787;28;20273;-79
2024/01/23 10:31:58;;;;;;;19.67;18.03;;;;;;;;;;5059785;28;20432;-78
2024/01/23 10:34:25;;;;;;;21.23;19.47;;;;;;;;;;5067030;28;20852;-77
2024/01/23 10:36:55;;;;;;;21.77;19.20;;;;;;;;;;5061758;28;20535;-78
2024/01/23 10:39:23;;;;;;;18.73;17.50;;;;;;;;;;5068781;28;20474;-78
2024/01/23 10:41:51;;;;;;;22.27;19.87;;;;;;;;;;5060001;28;20468;-78
2024/01/23 10:44:20;;;;;;;19.60;18.30;;;;;;;;;;5056785;28;20975;-78
2024/01/23 10:46:47;;;;;;;19.07;17.37;;;;;;;;;;5053618;28;20491;-79
2024/01/23 10:49:16;;;;;;;22.83;19.07;;;;;;;;;;5054246;28;20474;-78
2024/01/23 10:51:45;;;;;;;20.60;18.58;;;;;;;;;;5053504;28;20495;-75
2024/01/23 10:54:16;;;;;;;23.43;21.33;;;;;;;;;;5052646;28;20750;-77
2024/01/23 10:56:44;;;;;;;19.77;17.90;;;;;;;;;;5059045;28;20527;-78
2024/01/23 10:59:14;;;;;;;24.10;18.27;;;;;;;;;;5062886;28;20475;-78
2024/01/23 11:01:43;;;;;;;20.55;18.40;;;;;;;;;;5067906;28;20593;-78
2024/01/23 11:04:10;;;;;;;21.60;19.50;;;;;;;;;;5063299;28;20586;-78
2024/01/23 11:06:40;;;;;;;23.30;21.08;;;;;;;;;;5066662;28;20556;-77
2024/01/23 11:09:08;;;;;;;21.65;18.67;;;;;;;;;;5064647;28;20243;-77
2024/01/23 11:11:38;;;;;;;27.80;21.50;;;;;;;;;;5069487;28;20268;-78
2024/01/23 11:14:07;;;;;;;19.40;17.70;;;;;;;;;;5058065;28;20814;-77
2024/01/23 11:16:34;;;;;;;27.10;19.83;;;;;;;;;;5062842;28;20595;-78
2024/01/23 11:19:02;;;;;;;25.80;20.00;;;;;;;;;;5052918;28;20470;-79
2024/01/23 11:21:29;;;;;;;19.20;17.70;;;;;;;;;;5052535;28;20489;-77
2024/01/23 11:24:01;;;;;;;21.43;19.20;;;;;;;;;;5072439;28;20515;-78
2024/01/23 11:26:29;;;;;;;22.20;20.40;;;;;;;;;;5071802;28;20501;-77
2024/01/23 11:29:00;;;;;;;19.63;17.90;;;;;;;;;;5071342;28;20481;-76
2024/01/23 11:31:28;;;;;;;20.67;19.20;;;;;;;;;;5056905;28;20451;-77
2024/01/23 11:34:15;;;;;;;20.87;18.73;;;;;;;;;;5052329;28;20425;-76
2024/01/23 11:36:42;;;;;;;22.50;18.50;;;;;;;;;;5060409;28;20453;-76
2024/01/23 11:39:15;;;;;;;22.60;20.13;;;;;;;;;;5066412;28;20568;-77
2024/01/23 11:41:48;;;;;;;21.97;18.80;;;;;;;;;;5051721;28;20456;-77
2024/01/23 11:44:15;;;;;;;22.20;20.30;;;;;;;;;;5052496;28;20426;-77
2024/01/23 11:46:43;;;;;;;20.73;19.03;;;;;;;;;;5051694;28;20432;-76
2024/01/23 11:49:12;;;;;;;24.50;19.80;;;;;;;;;;5051792;28;20937;-76
2024/01/23 11:51:39;;;;;;;22.35;20.35;;;;;;;;;;5051030;28;20451;-77
2024/01/23 11:54:09;;;;;;;26.37;20.87;;;;;;;;;;5052402;28;20250;-76
2024/01/23 11:56:38;;;;;;;25.93;21.77;;;;;;;;;;5051486;28;20957;-77
2024/01/23 11:59:05;;;;;;;25.03;22.33;;;;;;;;;;5051779;28;20453;-76
2024/01/23 12:01:32;;;;;;;21.77;20.07;;;;;;;;;;5051975;28;20881;-77
2024/01/23 12:03:59;;;;;;;25.20;21.27;;;;;;;;;;5052217;28;20475;-76
2024/01/23 12:06:26;;;;;;;30.07;24.37;;;;;;;;;;5051682;28;20474;-75
2024/01/23 12:08:53;;;;;;;22.57;20.67;;;;;;;;;;5066303;28;21352;-77
2024/01/23 12:11:20;;;;;;;21.90;19.90;;;;;;;;;;5071881;28;20494;-77
2024/01/23 12:13:50;;;;;;;25.40;22.97;;;;;;;;;;5072025;28;20445;-76
2024/01/23 12:16:17;;;;;;;23.53;21.67;;;;;;;;;;5071031;28;20522;-76
2024/01/23 12:18:45;;;;;;;23.20;21.10;;;;;;;;;;5068294;28;20474;-76
2024/01/23 12:21:12;;;;;;;26.47;21.60;;;;;;;;;;5051417;28;20478;-76
2024/01/23 12:23:39;;;;;;;24.47;22.20;;;;;;;;;;5051056;28;20965;-77
2024/01/23 12:26:06;;;;;;;25.90;23.07;;;;;;;;;;5050863;28;20432;-77
2024/01/23 12:28:34;;;;;;;22.83;20.77;;;;;;;;;;5050430;28;20466;-76
2024/01/23 12:31:02;;;;;;;31.83;22.20;;;;;;;;;;5051356;28;20461;-76
2024/01/23 12:33:29;;;;;;;26.87;21.10;;;;;;;;;;5051014;28;20442;-76
2024/01/23 12:35:56;;;;;;;22.30;20.10;;;;;;;;;;5051117;28;20497;-76
2024/01/23 12:38:24;;;;;;;24.47;22.10;;;;;;;;;;5050720;28;20443;-76
2024/01/23 12:40:53;;;;;;;23.47;21.07;;;;;;;;;;5051079;28;20482;-76
2024/01/23 12:43:22;;;;;;;25.90;21.30;;;;;;;;;;5050776;28;20500;-77
2024/01/23 12:45:52;;;;;;;24.50;22.20;;;;;;;;;;5050482;28;20490;-77
2024/01/23 12:48:21;;;;;;;22.37;20.47;;;;;;;;;;5050291;28;20401;-76
2024/01/23 12:50:49;;;;;;;24.93;22.57;;;;;;;;;;5051003;28;20475;-77
2024/01/23 12:53:16;;;;;;;22.63;20.63;;;;;;;;;;5050747;28;20475;-77
2024/01/23 12:55:44;;;;;;;27.17;24.13;;;;;;;;;;5050583;28;20458;-76
2024/01/23 12:58:11;;;;;;;25.87;22.80;;;;;;;;;;5050721;28;20451;-76
2024/01/23 13:00:38;;;;;;;21.80;20.30;;;;;;;;;;5050223;28;20473;-76
2024/01/23 13:03:08;;;;;;;22.93;20.80;;;;;;;;;;5048914;28;20425;-76
2024/01/23 13:05:36;;;;;;;27.70;21.67;;;;;;;;;;5050663;28;20454;-75
2024/01/23 13:08:04;;;;;;;25.73;23.03;;;;;;;;;;5049580;28;20441;-75
2024/01/23 13:10:31;;;;;;;26.27;23.67;;;;;;;;;;5050949;28;20533;-76
2024/01/23 13:12:58;;;;;;;23.60;21.60;;;;;;;;;;5051651;28;20417;-75
2024/01/23 13:15:25;;;;;;;21.10;19.67;;;;;;;;;;5052214;28;20525;-75
2024/01/23 13:17:52;;;;;;;22.50;21.10;;;;;;;;;;5048982;28;20474;-76
2024/01/23 13:20:19;;;;;;;24.30;21.77;;;;;;;;;;5049879;28;21065;-76
2024/01/23 13:22:48;;;;;;;28.33;22.83;;;;;;;;;;5050446;28;20536;-76
2024/01/23 13:25:17;;;;;;;28.80;22.30;;;;;;;;;;5050486;28;20784;-76
2024/01/23 13:27:45;;;;;;;22.77;20.90;;;;;;;;;;5049256;28;20471;-76
2024/01/23 13:30:16;;;;;;;24.47;22.10;;;;;;;;;;5050207;28;20493;-76
2024/01/23 13:32:44;;;;;;;23.60;21.10;;;;;;;;;;5049918;28;20476;-75
2024/01/23 13:35:11;;;;;;;22.70;20.63;;;;;;;;;;5050081;28;20447;-76
2024/01/23 13:37:38;;;;;;;21.80;20.10;;;;;;;;;;5049865;28;20442;-76
2024/01/23 13:40:10;;;;;;;26.17;21.83;;;;;;;;;;5050083;28;20466;-76
2024/01/23 13:42:37;;;;;;;21.87;20.23;;;;;;;;;;5050192;28;20473;-76
2024/01/23 13:45:06;;;;;;;25.17;21.80;;;;;;;;;;5049519;28;20447;-76
2024/01/23 13:47:33;;;;;;;25.87;23.40;;;;;;;;;;5049856;28;20429;-76
2024/01/23 13:50:00;;;;;;;23.63;21.60;;;;;;;;;;5050130;28;20549;-76
2024/01/23 13:52:27;;;;;;;29.70;23.90;;;;;;;;;;5050225;28;20418;-76
2024/01/23 13:54:54;;;;;;;24.80;21.63;;;;;;;;;;5050213;28;20571;-76
2024/01/23 13:57:23;;;;;;;23.17;21.13;;;;;;;;;;5049690;28;20503;-76
2024/01/23 13:59:50;;;;;;;20.83;19.43;;;;;;;;;;5049237;28;20549;-76
2024/01/23 14:02:17;;;;;;;24.33;21.90;;;;;;;;;;5049923;28;21030;-75
2024/01/23 14:04:44;;;;;;;20.47;19.07;;;;;;;;;;5050210;28;20496;-76
2024/01/23 14:07:11;;;;;;;22.67;20.57;;;;;;;;;;5049640;28;20443;-75
2024/01/23 14:09:41;;;;;;;21.20;19.70;;;;;;;;;;5049622;28;20486;-75
2024/01/23 14:12:08;;;;;;;22.50;20.53;;;;;;;;;;5050303;28;20446;-76
2024/01/23 14:14:38;;;;;;;22.33;20.83;;;;;;;;;;5050163;28;20414;-76
2024/01/23 14:17:06;;;;;;;24.00;21.67;;;;;;;;;;5066735;28;20532;-75
2024/01/23 14:19:33;;;;;;;21.63;20.00;;;;;;;;;;5073726;28;20857;-75
2024/01/23 14:22:00;;;;;;;21.20;19.77;;;;;;;;;;5073412;28;20467;-76
2024/01/23 14:24:27;;;;;;;20.27;19.07;;;;;;;;;;5073861;28;20503;-76